Time;durP1;ratioP1;P1;durP2;ratioP2;P2;SDS_P1;SDS_P2;PMS_P1;PMS_P2;Temp;Humidity;BMP_temperature;BMP_pressure;BME280_temperature;BME280_humidity;BME280_pressure;Samples;Min_cycle;Max_cycle;Signal;HPM_P1;HPM_P2
2022/12/08 00:01:27;;;;;;;;;;;;;;;6.24;69.15;95059.44;5115903;28;1189;-70
2022/12/08 00:03:55;;;;;;;;;;;;;;;6.37;68.40;95056.50;5115953;28;1128;-70
2022/12/08 00:09:20;;;;;;;;;;;;;;;5.98;69.16;95063.56;5115890;28;1127;-70
2022/12/08 00:11:47;;;;;;;;;;;;;;;6.01;68.51;95077.41;5115732;28;1086;-70
2022/12/08 00:14:14;;;;;;;;;;;;;;;6.04;68.92;95077.09;5097824;28;966;-70
2022/12/08 00:16:40;;;;;;;;;;;;;;;6.05;69.50;95089.41;5115547;28;1232;-70
2022/12/08 00:19:06;;;;;;;;;;;;;;;6.02;69.17;95084.38;5115566;28;1990;-70
2022/12/08 00:21:32;;;;;;;;;;;;;;;5.87;68.44;95075.91;5115509;28;1085;-70
2022/12/08 00:23:59;;;;;;;;;;;;;;;5.78;68.92;95074.03;5115558;28;1215;-70
2022/12/08 00:26:25;;;;;;;;;;;;;;;5.77;69.17;95068.91;5097418;28;1117;-70
2022/12/08 00:28:51;;;;;;;;;;;;;;;5.94;69.01;95073.56;5097612;28;1611;-70
2022/12/08 00:31:18;;;;;;;;;;;;;;;5.98;69.47;95077.66;5115163;28;1096;-70
2022/12/08 00:33:44;;;;;;;;;;;;;;;6.04;67.47;95079.75;5097118;28;1054;-70
2022/12/08 00:36:12;;;;;;;;;;;;;;;5.93;68.56;95079.84;5097298;28;1105;-70
2022/12/08 00:38:39;;;;;;;;;;;;;;;5.84;69.88;95077.97;5097188;28;1995;-70
2022/12/08 00:41:11;;;;;;;;;;;;;;;5.51;71.77;95079.94;5115261;28;1196;-70
2022/12/08 00:43:37;;;;;;;;;;;;;;;5.66;71.00;95075.13;5115084;28;1116;-70
2022/12/08 00:46:04;;;;;;;;;;;;;;;5.94;69.22;95085.97;5097066;28;1088;-70
2022/12/08 00:48:30;;;;;;;;;;;;;;;6.00;69.35;95085.50;5115028;28;1682;-70
2022/12/08 00:50:56;;;;;;;;;;;;;;;6.15;69.11;95078.00;5114843;28;1073;-70
2022/12/08 00:53:22;;;;;;;;;;;;;;;6.03;69.59;95079.88;5115026;28;1061;-70
2022/12/08 00:55:48;;;;;;;;;;;;;;;6.04;70.10;95081.59;5114952;28;1037;-70
2022/12/08 00:58:15;;;;;;;;;;;;;;;5.82;71.54;95074.63;5096894;28;1992;-70
2022/12/08 01:00:42;;;;;;;;;;;;;;;6.01;69.25;95073.88;5114725;28;1100;-70
2022/12/08 01:03:09;;;;;;;;;;;;;;;6.09;69.64;95074.06;5096827;28;1036;-70
2022/12/08 01:05:36;;;;;;;;;;;;;;;6.20;69.51;95076.63;5114924;28;961;-70
2022/12/08 01:08:06;;;;;;;;;;;;;;;6.21;69.44;95066.81;5096299;28;1196;-70
2022/12/08 01:10:35;;;;;;;;;;;;;;;6.25;69.30;95073.53;5114765;28;977;-70
2022/12/08 01:13:02;;;;;;;;;;;;;;;6.25;69.61;95077.03;5114647;28;1020;-70
2022/12/08 01:15:29;;;;;;;;;;;;;;;6.27;70.44;95082.19;5114291;28;1061;-69
2022/12/08 01:17:55;;;;;;;;;;;;;;;6.37;70.09;95088.34;5114567;28;1996;-70
2022/12/08 01:20:21;;;;;;;;;;;;;;;6.32;70.20;95095.91;5114614;28;981;-70
2022/12/08 01:22:47;;;;;;;;;;;;;;;6.12;71.51;95088.88;5096500;28;1026;-70
2022/12/08 01:25:14;;;;;;;;;;;;;;;6.28;70.87;95081.22;5114446;28;1049;-70
2022/12/08 01:27:40;;;;;;;;;;;;;;;6.34;71.23;95078.03;5114220;28;1197;-70
2022/12/08 01:30:08;;;;;;;;;;;;;;;6.34;71.61;95074.53;5096388;28;1053;-69
2022/12/08 01:32:34;;;;;;;;;;;;;;;6.35;71.48;95086.81;5114015;28;1211;-69
2022/12/08 01:35:01;;;;;;;;;;;;;;;6.55;71.03;95091.19;5096263;28;1220;-69
2022/12/08 01:37:28;;;;;;;;;;;;;;;6.69;70.34;95079.31;5096064;28;1902;-69
2022/12/08 01:39:54;;;;;;;;;;;;;;;6.52;70.76;95072.03;5114146;28;1153;-69
2022/12/08 01:42:21;;;;;;;;;;;;;;;6.41;70.93;95057.06;5096180;28;969;-69
2022/12/08 01:44:53;;;;;;;;;;;;;;;6.17;73.05;95066.25;5114525;28;1184;-68
2022/12/08 01:47:21;;;;;;;;;;;;;;;6.12;74.13;95059.66;5096030;28;1128;-69
2022/12/08 01:49:48;;;;;;;;;;;;;;;6.29;74.22;95053.69;5113902;28;1108;-69
2022/12/08 01:52:24;;;;;;;;;;;;;;;6.50;73.16;95055.41;5114110;28;1001;-70
2022/12/08 01:55:11;;;;;;;;;;;;;;;6.63;72.24;95056.81;5113967;28;1229;-69
2022/12/08 01:57:42;;;;;;;;;;;;;;;6.72;71.60;95060.44;5113630;28;1913;-69
2022/12/08 02:00:10;;;;;;;;;;;;;;;6.74;71.80;95063.81;5113802;28;1223;-70
2022/12/08 02:02:55;;;;;;;;;;;;;;;6.80;71.80;95060.56;5113774;28;1100;-69
2022/12/08 02:05:23;;;;;;;;;;;;;;;6.73;71.58;95061.28;5113839;28;894;-70
2022/12/08 02:07:50;;;;;;;;;;;;;;;6.73;71.94;95064.75;5113929;28;1661;-69
2022/12/08 02:10:18;;;;;;;;;;;;;;;6.72;72.27;95071.06;5113712;28;1026;-70
2022/12/08 02:12:45;;;;;;;;;;;;;;;6.78;71.67;95070.50;5113601;28;1165;-70
2022/12/08 02:15:12;;;;;;;;;;;;;;;6.74;72.22;95063.81;5113760;28;1137;-70
2022/12/08 02:17:44;;;;;;;;;;;;;;;6.39;73.80;95057.22;5113576;28;1914;-70
2022/12/08 02:20:16;;;;;;;;;;;;;;;6.59;73.57;95065.19;5115162;28;1013;-70
2022/12/08 02:22:45;;;;;;;;;;;;;;;6.44;73.85;95054.97;5117775;28;1025;-70
2022/12/08 02:25:41;;;;;;;;;;;;;;;6.59;73.06;95047.44;5118008;28;969;-70
2022/12/08 02:28:30;;;;;;;;;;;;;;;6.56;72.92;95049.53;5027845;28;1285;-70
2022/12/08 02:31:08;;;;;;;;;;;;;;;6.59;73.22;95059.88;5104517;28;1288;-71
2022/12/08 02:33:37;;;;;;;;;;;;;;;6.66;73.28;95061.00;5117857;28;985;-70
2022/12/08 02:36:14;;;;;;;;;;;;;;;6.55;73.90;95053.19;5117632;28;1101;-70
2022/12/08 02:38:43;;;;;;;;;;;;;;;6.42;74.33;95043.66;5117501;28;2016;-70
2022/12/08 02:41:18;;;;;;;;;;;;;;;6.61;73.80;95055.28;5117541;28;1132;-70
2022/12/08 02:43:53;;;;;;;;;;;;;;;6.44;74.43;95051.47;5117638;28;976;-69
2022/12/08 02:46:26;;;;;;;;;;;;;;;6.62;74.20;95056.94;5099433;28;1109;-69
2022/12/08 02:48:52;;;;;;;;;;;;;;;6.82;73.36;95050.66;5117467;28;1054;-70
2022/12/08 02:51:19;;;;;;;;;;;;;;;6.74;73.44;95060.31;5099341;28;1049;-70
2022/12/08 02:53:46;;;;;;;;;;;;;;;6.69;74.00;95047.44;5117546;28;1009;-70
2022/12/08 02:56:42;;;;;;;;;;;;;;;6.71;72.91;95034.00;5117201;28;1546;-70
2022/12/08 02:59:20;;;;;;;;;;;;;;;6.64;73.13;95031.94;5095642;28;1988;-70
2022/12/08 03:02:05;;;;;;;;;;;;;;;6.60;73.38;95029.66;5099133;28;997;-70
2022/12/08 03:04:40;;;;;;;;;;;;;;;6.68;73.70;95034.28;5117036;28;1532;-70
2022/12/08 03:07:12;;;;;;;;;;;;;;;6.64;74.02;95037.25;5117071;28;1069;-70
2022/12/08 03:09:45;;;;;;;;;;;;;;;6.63;74.20;95034.72;5116998;28;1041;-70
2022/12/08 03:12:15;;;;;;;;;;;;;;;6.79;73.72;95027.03;5117010;28;1116;-70
2022/12/08 03:14:44;;;;;;;;;;;;;;;6.80;73.61;95026.03;5116909;28;1061;-70
2022/12/08 03:17:11;;;;;;;;;;;;;;;6.81;73.19;95032.19;5117130;28;1028;-70
2022/12/08 03:19:39;;;;;;;;;;;;;;;6.86;73.23;95024.63;5116717;28;1905;-70
2022/12/08 03:22:06;;;;;;;;;;;;;;;6.84;73.21;95029.25;5116743;28;1073;-70
2022/12/08 03:24:35;;;;;;;;;;;;;;;6.78;73.70;95033.31;5116676;28;1104;-70
2022/12/08 03:27:03;;;;;;;;;;;;;;;6.78;74.18;95030.66;5116702;28;1039;-70
2022/12/08 03:29:31;;;;;;;;;;;;;;;6.59;75.37;95031.50;5116506;28;1679;-69
2022/12/08 03:32:02;;;;;;;;;;;;;;;6.54;75.74;95036.38;5116218;28;1240;-71
2022/12/08 03:34:29;;;;;;;;;;;;;;;6.80;74.65;95036.66;5116690;28;1511;-70
2022/12/08 03:36:59;;;;;;;;;;;;;;;6.78;74.88;95043.94;5116518;28;1233;-70
2022/12/08 03:39:25;;;;;;;;;;;;;;;6.52;76.18;95046.31;5116246;28;1908;-70
2022/12/08 03:41:52;;;;;;;;;;;;;;;6.63;75.64;95046.16;5116434;28;1074;-71
2022/12/08 03:44:19;;;;;;;;;;;;;;;6.82;74.47;95053.31;5098559;28;1534;-70
2022/12/08 03:46:45;;;;;;;;;;;;;;;6.93;74.22;95048.84;5116443;28;1044;-71
2022/12/08 03:49:11;;;;;;;;;;;;;;;6.99;74.24;95045.59;5116250;28;1198;-70
2022/12/08 03:51:37;;;;;;;;;;;;;;;7.05;74.10;95037.06;5116242;28;945;-71
2022/12/08 03:54:04;;;;;;;;;;;;;;;7.03;74.57;95031.03;5098118;28;1159;-70
2022/12/08 03:56:31;;;;;;;;;;;;;;;6.95;73.79;95047.69;5098008;28;1092;-71
2022/12/08 03:58:58;;;;;;;;;;;;;;;6.77;73.85;95054.69;5116041;28;1908;-71
2022/12/08 04:01:26;;;;;;;;;;;;;;;6.76;73.44;95048.56;5098198;28;1091;-70
2022/12/08 04:03:52;;;;;;;;;;;;;;;6.78;73.38;95054.56;5116048;28;1054;-70
2022/12/08 04:06:19;;;;;;;;;;;;;;;6.82;73.46;95055.13;5116106;28;1052;-70
2022/12/08 04:08:46;;;;;;;;;;;;;;;6.74;73.61;95062.97;5115818;28;1139;-70
2022/12/08 04:11:12;;;;;;;;;;;;;;;6.70;73.31;95066.88;5097831;28;1057;-70
2022/12/08 04:13:39;;;;;;;;;;;;;;;6.59;73.81;95054.56;5115681;28;1065;-70
2022/12/08 04:16:06;;;;;;;;;;;;;;;6.56;74.18;95055.66;5115747;28;1045;-70
2022/12/08 04:18:33;;;;;;;;;;;;;;;6.63;73.77;95063.94;5097557;28;1990;-69
2022/12/08 04:21:00;;;;;;;;;;;;;;;6.72;73.73;95060.44;5115607;28;1034;-70
2022/12/08 04:23:26;;;;;;;;;;;;;;;6.73;73.71;95071.91;5115518;28;1065;-70
2022/12/08 04:25:52;;;;;;;;;;;;;;;6.69;73.97;95066.03;5115804;28;985;-70
2022/12/08 04:28:18;;;;;;;;;;;;;;;6.59;74.44;95063.38;5097661;28;1016;-70
2022/12/08 04:30:46;;;;;;;;;;;;;;;6.61;74.33;95065.91;5115131;28;1287;-70
2022/12/08 04:33:12;;;;;;;;;;;;;;;6.57;74.97;95056.53;5115373;28;1077;-69
2022/12/08 04:35:38;;;;;;;;;;;;;;;6.62;74.88;95055.13;5097291;28;974;-69
2022/12/08 04:38:04;;;;;;;;;;;;;;;6.74;74.44;95058.50;5097106;28;2016;-70
2022/12/08 04:40:31;;;;;;;;;;;;;;;6.77;74.37;95054.69;5115623;28;1149;-69
2022/12/08 04:42:57;;;;;;;;;;;;;;;6.76;73.83;95059.19;5096626;28;978;-70
2022/12/08 04:45:23;;;;;;;;;;;;;;;6.78;73.79;95062.53;5115365;28;1017;-70
2022/12/08 04:47:49;;;;;;;;;;;;;;;6.80;73.77;95067.72;5115060;28;1045;-70
2022/12/08 04:50:15;;;;;;;;;;;;;;;6.81;73.54;95056.97;5097109;28;1065;-70
2022/12/08 04:52:41;;;;;;;;;;;;;;;6.84;73.41;95064.63;5114885;28;1041;-70
2022/12/08 04:55:07;;;;;;;;;;;;;;;6.84;73.25;95059.31;5115293;28;1065;-70
2022/12/08 04:57:34;;;;;;;;;;;;;;;6.80;73.45;95060.56;5114807;28;1914;-70
2022/12/08 05:00:00;;;;;;;;;;;;;;;6.71;73.44;95060.59;5096787;28;1037;-70
2022/12/08 05:02:26;;;;;;;;;;;;;;;6.68;73.55;95068.81;5114780;28;1122;-70
2022/12/08 05:04:52;;;;;;;;;;;;;;;6.53;74.00;95071.06;5096721;28;1116;-70
2022/12/08 05:07:18;;;;;;;;;;;;;;;6.63;73.70;95071.91;5096675;28;1012;-70
2022/12/08 05:09:44;;;;;;;;;;;;;;;6.68;73.04;95080.31;5111537;28;1148;-70
2022/12/08 05:12:10;;;;;;;;;;;;;;;6.52;73.44;95095.94;5114875;28;1041;-71
2022/12/08 05:14:37;;;;;;;;;;;;;;;6.10;75.54;95093.47;5114429;28;1041;-70
2022/12/08 05:17:03;;;;;;;;;;;;;;;6.25;74.56;95092.13;5114665;28;1032;-70
2022/12/08 05:19:29;;;;;;;;;;;;;;;6.36;73.11;95092.00;5096013;28;1988;-70
2022/12/08 05:21:55;;;;;;;;;;;;;;;6.32;72.86;95106.53;5096390;28;1124;-70
2022/12/08 05:24:21;;;;;;;;;;;;;;;6.21;73.43;95101.34;5096681;28;1067;-70
2022/12/08 05:26:47;;;;;;;;;;;;;;;6.05;74.62;95099.16;5114268;28;1105;-70
2022/12/08 05:29:13;;;;;;;;;;;;;;;6.12;74.66;95099.50;5114298;28;1125;-71
2022/12/08 05:31:39;;;;;;;;;;;;;;;6.15;73.48;95091.25;5095785;28;1214;-70
2022/12/08 05:34:06;;;;;;;;;;;;;;;6.11;73.62;95092.47;5096148;28;1065;-70
2022/12/08 05:36:32;;;;;;;;;;;;;;;6.22;73.07;95101.19;5114058;28;1112;-70
2022/12/08 05:38:58;;;;;;;;;;;;;;;6.22;73.23;95103.00;5114024;28;2000;-70
2022/12/08 05:41:24;;;;;;;;;;;;;;;6.30;72.99;95099.66;5114307;28;1109;-70
2022/12/08 05:43:50;;;;;;;;;;;;;;;6.31;73.28;95104.84;5114320;28;980;-71
2022/12/08 05:46:17;;;;;;;;;;;;;;;6.20;73.60;95097.84;5114015;28;1147;-71
2022/12/08 05:48:43;;;;;;;;;;;;;;;6.33;73.15;95102.06;5114001;28;1029;-71
2022/12/08 05:51:16;;;;;;;;;;;;;;;6.32;73.28;95101.22;5112814;28;1058;-70
2022/12/08 05:53:42;;;;;;;;;;;;;;;6.19;74.00;95116.56;5113771;28;997;-70
2022/12/08 05:56:08;;;;;;;;;;;;;;;6.36;72.90;95123.03;5114093;28;1004;-70
2022/12/08 05:58:34;;;;;;;;;;;;;;;6.48;71.69;95116.63;5113864;28;1906;-71
2022/12/08 06:01:00;;;;;;;;;;;;;;;6.44;71.35;95116.06;5113965;28;1065;-70
2022/12/08 06:03:26;;;;;;;;;;;;;;;6.30;72.02;95116.47;5113579;28;1028;-70
2022/12/08 06:05:52;;;;;;;;;;;;;;;6.27;72.39;95114.06;5113703;28;1046;-71
2022/12/08 06:08:18;;;;;;;;;;;;;;;6.27;72.66;95116.72;5113692;28;1136;-71
2022/12/08 06:10:45;;;;;;;;;;;;;;;6.20;73.38;95120.88;5113798;28;1001;-71
2022/12/08 06:13:12;;;;;;;;;;;;;;;6.41;72.92;95126.97;5095599;28;1188;-71
2022/12/08 06:15:39;;;;;;;;;;;;;;;6.45;72.24;95130.19;5113666;28;1074;-71
2022/12/08 06:18:06;;;;;;;;;;;;;;;6.45;71.65;95123.06;5113713;28;1906;-70
2022/12/08 06:20:32;;;;;;;;;;;;;;;6.38;72.41;95131.72;5113456;28;950;-70
2022/12/08 06:22:58;;;;;;;;;;;;;;;6.24;73.88;95125.81;5113302;28;1104;-70
2022/12/08 06:25:24;;;;;;;;;;;;;;;6.19;74.08;95122.72;5113820;28;1029;-70
2022/12/08 06:27:50;;;;;;;;;;;;;;;6.22;74.65;95127.75;5114038;28;1016;-71
2022/12/08 06:30:17;;;;;;;;;;;;;;;6.14;75.41;95130.22;5113665;28;1021;-68
2022/12/08 06:32:43;;;;;;;;;;;;;;;6.61;74.08;95132.31;5113012;28;1060;-71
2022/12/08 06:35:09;;;;;;;;;;;;;;;7.03;72.56;95132.06;5095426;28;1128;-70
2022/12/08 06:37:35;;;;;;;;;;;;;;;7.21;71.96;95135.72;5113622;28;1902;-69
2022/12/08 06:40:02;;;;;;;;;;;;;;;7.46;71.37;95141.44;5112845;28;1157;-70
2022/12/08 06:42:43;;;;;;;;;;;;;;;7.55;71.15;95143.22;5113100;28;1127;-70
2022/12/08 06:45:10;;;;;;;;;;;;;;;7.79;70.43;95139.25;5113457;28;1041;-70
2022/12/08 06:47:36;;;;;;;;;;;;;;;7.89;69.83;95140.06;5113279;28;1057;-70
2022/12/08 06:50:03;;;;;;;;;;;;;;;7.85;69.62;95149.31;5095456;28;1143;-70
2022/12/08 06:52:29;;;;;;;;;;;;;;;7.82;69.77;95142.47;5112954;28;1037;-70
2022/12/08 06:54:55;;;;;;;;;;;;;;;7.84;69.46;95139.66;5113541;28;1055;-70
2022/12/08 06:57:23;;;;;;;;;;;;;;;7.93;69.48;95146.78;5095328;28;993;-70
2022/12/08 06:59:49;;;;;;;;;;;;;;;8.35;67.90;95145.50;5113282;28;1906;-70
2022/12/08 07:02:16;;;;;;;;;;;;;;;8.29;67.84;95144.25;5113002;28;1465;-70
2022/12/08 07:04:42;;;;;;;;;;;;;;;8.29;67.91;95151.41;5113150;28;1101;-70
2022/12/08 07:07:08;;;;;;;;;;;;;;;9.82;64.54;95156.78;5116423;28;1120;-70
2022/12/08 07:09:35;;;;;;;;;;;;;;;12.68;54.08;95160.94;5117308;28;977;-70
2022/12/08 07:12:02;;;;;;;;;;;;;;;11.26;58.03;95153.41;5116737;28;1211;-70
2022/12/08 07:14:29;;;;;;;;;;;;;;;10.32;61.46;95153.44;5116951;28;1056;-70
2022/12/08 07:16:55;;;;;;;;;;;;;;;9.61;63.52;95159.78;5116856;28;1049;-70
2022/12/08 07:19:21;;;;;;;;;;;;;;;9.21;65.70;95162.97;5116760;28;1926;-70
2022/12/08 07:21:47;;;;;;;;;;;;;;;9.17;66.03;95160.59;5116665;28;1028;-70
2022/12/08 07:24:13;;;;;;;;;;;;;;;9.21;65.78;95160.28;5098949;28;994;-70
2022/12/08 07:26:39;;;;;;;;;;;;;;;9.36;66.06;95156.09;5116727;28;1053;-70
2022/12/08 07:29:06;;;;;;;;;;;;;;;9.53;65.90;95159.72;5116734;28;1210;-70
2022/12/08 07:31:33;;;;;;;;;;;;;;;9.60;65.01;95159.94;5116025;28;1194;-71
2022/12/08 07:33:59;;;;;;;;;;;;;;;9.77;65.05;95140.41;5116528;28;1132;-70
2022/12/08 07:36:25;;;;;;;;;;;;;;;10.03;64.07;95145.72;5098486;28;1046;-75
2022/12/08 07:38:54;;;;;;;;;;;;;;;10.31;64.04;95138.41;5116521;28;1906;-75
2022/12/08 07:41:22;;;;;;;;;;;;;;;10.50;62.62;95133.81;5098189;28;1431;-75
2022/12/08 07:43:48;;;;;;;;;;;;;;;10.57;62.90;95136.66;5098312;28;997;-68
2022/12/08 07:46:17;;;;;;;;;;;;;;;10.51;63.69;95148.88;5116234;28;1045;-71
2022/12/08 07:48:43;;;;;;;;;;;;;;;10.64;63.91;95148.38;5098281;28;1060;-70
2022/12/08 07:51:11;;;;;;;;;;;;;;;10.77;63.80;95145.25;5097938;28;1081;-70
2022/12/08 07:53:38;;;;;;;;;;;;;;;10.88;63.28;95153.00;5116286;28;1052;-70
2022/12/08 07:56:05;;;;;;;;;;;;;;;10.75;63.19;95151.59;5116242;28;1052;-70
2022/12/08 07:58:31;;;;;;;;;;;;;;;10.94;63.41;95158.50;5116015;28;2033;-70
2022/12/08 08:00:57;;;;;;;;;;;;;;;11.12;62.87;95163.75;5115832;28;1039;-70
2022/12/08 08:03:24;;;;;;;;;;;;;;;11.10;63.11;95163.06;5116274;28;1018;-70
2022/12/08 08:05:50;;;;;;;;;;;;;;;11.04;63.60;95169.09;5115909;28;1112;-70
2022/12/08 08:08:16;;;;;;;;;;;;;;;10.79;64.47;95170.84;5116095;28;1117;-69
2022/12/08 08:10:43;;;;;;;;;;;;;;;10.70;64.57;95161.13;5115570;28;1151;-69
2022/12/08 08:13:09;;;;;;;;;;;;;;;10.83;64.41;95166.00;5115888;28;1028;-70
2022/12/08 08:15:35;;;;;;;;;;;;;;;11.06;63.76;95160.88;5097598;28;958;-69
2022/12/08 08:18:01;;;;;;;;;;;;;;;11.08;63.46;95169.59;5114585;28;2296;-70
2022/12/08 08:20:27;;;;;;;;;;;;;;;11.16;63.48;95174.97;5115638;28;1207;-70
2022/12/08 08:22:53;;;;;;;;;;;;;;;11.25;63.06;95171.31;5095380;28;1040;-70
2022/12/08 08:25:21;;;;;;;;;;;;;;;11.18;63.20;95164.09;5095175;28;1046;-70
2022/12/08 08:27:47;;;;;;;;;;;;;;;11.21;63.55;95164.63;5095163;28;1057;-70
2022/12/08 08:30:14;;;;;;;;;;;;;;;11.19;63.21;95163.09;5077189;28;1008;-70
2022/12/08 08:32:40;;;;;;;;;;;;;;;11.18;63.20;95158.75;5113142;28;1255;-70
2022/12/08 08:35:07;;;;;;;;;;;;;;;11.38;62.89;95160.09;5097333;28;1093;-69
2022/12/08 08:37:33;;;;;;;;;;;;;;;11.67;61.99;95158.78;5097490;28;1545;-70
2022/12/08 08:40:00;;;;;;;;;;;;;;;12.07;60.99;95162.47;5097099;28;1906;-70
2022/12/08 08:42:26;;;;;;;;;;;;;;;11.82;61.86;95162.47;5114969;28;1104;-69
2022/12/08 08:44:52;;;;;;;;;;;;;;;11.52;62.58;95154.09;5115140;28;1057;-70
2022/12/08 08:47:18;;;;;;;;;;;;;;;11.47;63.09;95147.56;5115406;28;1009;-71
2022/12/08 08:49:44;;;;;;;;;;;;;;;11.44;62.90;95140.72;5097197;28;1000;-71
2022/12/08 08:52:12;;;;;;;;;;;;;;;11.44;63.80;95139.84;5114977;28;985;-70
2022/12/08 08:54:38;;;;;;;;;;;;;;;11.49;63.15;95138.34;5114975;28;1108;-70
2022/12/08 08:57:04;;;;;;;;;;;;;;;11.59;63.31;95132.84;5114987;28;1058;-70
2022/12/08 08:59:31;;;;;;;;;;;;;;;11.69;63.32;95122.78;5096616;28;1994;-69
2022/12/08 09:01:57;;;;;;;;;;;;;;;11.84;62.99;95130.16;5114978;28;1246;-71
2022/12/08 09:04:24;;;;;;;;;;;;;;;12.15;61.92;95132.97;5114061;28;1190;-70
2022/12/08 09:06:50;;;;;;;;;;;;;;;12.67;60.30;95129.78;5114991;28;1080;-70
2022/12/08 09:09:17;;;;;;;;;;;;;;;13.56;57.47;95137.47;5114878;28;1017;-71
2022/12/08 09:11:43;;;;;;;;;;;;;;;14.20;55.81;95120.13;5114627;28;1057;-71
2022/12/08 09:14:11;;;;;;;;;;;;;;;14.56;55.02;95120.19;5114261;28;1132;-71
2022/12/08 09:16:37;;;;;;;;;;;;;;;14.95;53.95;95112.84;5114544;28;1128;-71
2022/12/08 09:19:03;;;;;;;;;;;;;;;14.89;54.84;95102.84;5114651;28;1986;-70
2022/12/08 09:21:29;;;;;;;;;;;;;;;16.35;50.61;95108.75;5114512;28;1000;-71
2022/12/08 09:23:57;;;;;;;;;;;;;;;20.08;42.81;95124.81;5114280;28;1173;-71
2022/12/08 09:26:25;;;;;;;;;;;;;;;22.03;38.80;95125.09;5114464;28;1138;-71
2022/12/08 09:28:52;;;;;;;;;;;;;;;23.04;37.34;95121.50;5114105;28;1057;-71
2022/12/08 09:31:19;;;;;;;;;;;;;;;22.07;38.21;95120.03;5096116;28;1091;-71
2022/12/08 09:33:46;;;;;;;;;;;;;;;21.01;39.77;95109.53;5114342;28;1037;-71
2022/12/08 09:36:13;;;;;;;;;;;;;;;17.74;45.92;95094.13;5096018;28;1160;-71
2022/12/08 09:38:40;;;;;;;;;;;;;;;16.14;50.52;95072.75;5114115;28;1992;-71
2022/12/08 09:41:15;;;;;;;;;;;;;;;15.70;51.40;95076.50;5096162;28;1062;-71
2022/12/08 09:43:47;;;;;;;;;;;;;;;19.11;44.48;95092.44;5114346;28;1124;-71
2022/12/08 09:46:16;;;;;;;;;;;;;;;20.60;41.40;95094.75;5113846;28;1161;-71
2022/12/08 09:48:46;;;;;;;;;;;;;;;20.99;40.66;95091.78;5114013;28;1053;-71
2022/12/08 09:51:14;;;;;;;;;;;;;;;21.41;39.56;95094.59;5096029;28;1143;-73
2022/12/08 09:54:03;;;;;;;;;;;;;;;22.63;38.16;95098.78;5113908;28;937;-71
2022/12/08 09:56:31;;;;;;;;;;;;;;;23.79;35.60;95100.66;5103284;28;1288;-72
2022/12/08 09:59:07;;;;;;;;;;;;;;;24.13;35.01;95100.69;5114042;28;1912;-71
2022/12/08 10:01:37;;;;;;;;;;;;;;;25.20;33.39;95106.13;5113841;28;1113;-71
2022/12/08 10:04:05;;;;;;;;;;;;;;;27.31;30.86;95101.47;5113902;28;990;-71
2022/12/08 10:06:38;;;;;;;;;;;;;;;26.82;31.13;95109.97;5095686;28;1553;-71
2022/12/08 10:09:23;;;;;;;;;;;;;;;24.58;33.73;95098.97;5113790;28;1065;-72
2022/12/08 10:11:49;;;;;;;;;;;;;;;21.83;38.56;95067.44;5113647;28;1193;-70
2022/12/08 10:14:23;;;;;;;;;;;;;;;21.21;39.10;95052.19;5113524;28;1125;-71
2022/12/08 10:16:52;;;;;;;;;;;;;;;20.80;39.77;95042.88;5095703;28;1068;-71
2022/12/08 10:19:22;;;;;;;;;;;;;;;22.12;38.28;95049.38;5113596;28;1901;-72
2022/12/08 10:21:49;;;;;;;;;;;;;;;23.77;35.30;95059.06;5112529;28;1057;-72
2022/12/08 10:24:25;;;;;;;;;;;;;;;21.79;37.79;95045.28;5113937;28;1665;-72
2022/12/08 10:26:53;;;;;;;;;;;;;;;20.58;40.07;95028.06;5113663;28;1101;-72
2022/12/08 10:29:19;;;;;;;;;;;;;;;20.47;40.46;95029.66;5113539;28;1069;-71
2022/12/08 10:31:45;;;;;;;;;;;;;;;18.50;43.93;95017.88;5113553;28;1175;-70
2022/12/08 10:34:17;;;;;;;;;;;;;;;17.50;46.62;95009.88;5113488;28;1073;-70
2022/12/08 10:36:46;;;;;;;;;;;;;;;17.00;48.21;94992.34;5113494;28;1093;-71
2022/12/08 10:39:31;;;;;;;;;;;;;;;16.22;50.14;94995.38;5113362;28;1982;-70
2022/12/08 10:42:08;;;;;;;;;;;;;;;15.81;51.23;94994.31;5116047;28;1057;-70
2022/12/08 10:44:46;;;;;;;;;;;;;;;17.09;48.88;95001.94;5117517;28;1053;-72
2022/12/08 10:47:13;;;;;;;;;;;;;;;18.01;46.41;94994.06;5117657;28;1057;-71
2022/12/08 10:49:39;;;;;;;;;;;;;;;18.14;46.01;95004.88;5099381;28;1073;-71
2022/12/08 10:52:21;;;;;;;;;;;;;;;17.93;46.47;95001.34;5099102;28;1186;-72
2022/12/08 10:54:52;;;;;;;;;;;;;;;17.17;47.82;95005.28;5117430;28;1061;-71
2022/12/08 10:57:20;;;;;;;;;;;;;;;16.93;49.40;94998.56;5117358;28;1059;-71
2022/12/08 10:59:47;;;;;;;;;;;;;;;18.90;45.62;95006.06;5117096;28;1995;-71
2022/12/08 11:02:20;;;;;;;;;;;;;;;20.93;41.07;95005.75;5082321;28;1464;-71
2022/12/08 11:04:46;;;;;;;;;;;;;;;22.06;39.45;94997.75;5117145;28;1020;-72
2022/12/08 11:07:19;;;;;;;;;;;;;;;22.67;37.85;95007.31;5117549;28;1045;-71
2022/12/08 11:09:47;;;;;;;;;;;;;;;22.11;38.81;94992.44;5117340;28;1129;-71
2022/12/08 11:12:15;;;;;;;;;;;;;;;21.20;40.39;94990.72;5116867;28;1665;-71
2022/12/08 11:14:41;;;;;;;;;;;;;;;20.69;41.46;94983.06;5117036;28;1120;-71
2022/12/08 11:17:11;;;;;;;;;;;;;;;20.62;42.09;94967.69;5116958;28;1057;-71
2022/12/08 11:19:39;;;;;;;;;;;;;;;20.12;42.80;94970.50;5116884;28;1986;-74
2022/12/08 11:22:38;;;;;;;;;;;;;;;19.52;44.13;94957.50;5116705;28;1069;-73
2022/12/08 11:25:05;;;;;;;;;;;;;;;18.82;45.65;94954.84;5055475;28;1441;-70
2022/12/08 11:27:32;;;;;;;;;;;;;;;18.16;46.64;94945.13;5116732;28;1139;-71
2022/12/08 11:29:59;;;;;;;;;;;;;;;17.57;48.17;94934.19;5116702;28;1056;-71
2022/12/08 11:32:26;;;;;;;;;;;;;;;16.87;50.47;94931.91;5116045;28;1399;-72
2022/12/08 11:34:59;;;;;;;;;;;;;;;16.49;51.55;94942.38;5116794;28;1049;-71
2022/12/08 11:37:36;;;;;;;;;;;;;;;16.10;52.86;94930.38;5098590;28;1579;-71
2022/12/08 11:40:05;;;;;;;;;;;;;;;15.82;53.88;94925.88;5098400;28;1906;-71
2022/12/08 11:42:34;;;;;;;;;;;;;;;15.58;54.72;94929.88;5116081;28;1120;-71
2022/12/08 11:45:11;;;;;;;;;;;;;;;15.39;55.72;94928.72;5116481;28;1045;-71
2022/12/08 11:47:52;;;;;;;;;;;;;;;15.26;56.92;94944.78;5116385;28;1168;-71
2022/12/08 11:50:26;;;;;;;;;;;;;;;15.30;57.08;94938.78;5116446;28;1399;-71
2022/12/08 11:52:52;;;;;;;;;;;;;;;15.46;56.81;94931.44;5115749;28;1106;-71
2022/12/08 11:55:33;;;;;;;;;;;;;;;15.47;56.25;94927.72;5116410;28;1177;-71
2022/12/08 11:58:03;;;;;;;;;;;;;;;15.36;56.26;94918.31;5116192;28;1906;-71
2022/12/08 12:00:30;;;;;;;;;;;;;;;15.07;56.39;94932.81;5098060;28;1030;-70
2022/12/08 12:03:05;;;;;;;;;;;;;;;14.98;56.70;94929.41;5115813;28;1259;-70
2022/12/08 12:05:43;;;;;;;;;;;;;;;14.96;55.71;94926.09;5116027;28;1112;-70
2022/12/08 12:08:13;;;;;;;;;;;;;;;14.87;55.00;94925.38;5098100;28;1784;-71
2022/12/08 12:11:05;;;;;;;;;;;;;;;14.89;54.81;94914.41;5115955;28;1506;-71
2022/12/08 12:13:32;;;;;;;;;;;;;;;14.88;55.26;94916.28;5112518;28;1532;-70
2022/12/08 12:16:01;;;;;;;;;;;;;;;14.95;54.49;94911.78;5115787;28;1036;-70
2022/12/08 12:18:34;;;;;;;;;;;;;;;15.05;55.30;94908.75;5115734;28;1906;-70
2022/12/08 12:21:10;;;;;;;;;;;;;;;15.15;55.34;94900.34;5115995;28;1499;-70
2022/12/08 12:23:43;;;;;;;;;;;;;;;15.31;54.00;94900.06;5097310;28;1179;-70
2022/12/08 12:26:17;;;;;;;;;;;;;;;15.40;53.81;94909.66;5115661;28;1089;-70
2022/12/08 12:28:48;;;;;;;;;;;;;;;15.36;54.19;94904.84;5097550;28;1049;-70
2022/12/08 12:35:15;;;;;;;;;;;;;;;14.96;55.41;94905.38;5097662;28;1361;-71
2022/12/08 12:37:41;;;;;;;;;;;;;;;14.90;56.00;94897.25;5115029;28;1116;-71
2022/12/08 12:40:16;;;;;;;;;;;;;;;14.86;55.91;94902.19;5115192;28;1977;-70
2022/12/08 12:42:44;;;;;;;;;;;;;;;14.81;56.39;94894.69;5115248;28;1325;-71
2022/12/08 12:45:16;;;;;;;;;;;;;;;14.86;56.01;94888.72;5115244;28;1055;-70
2022/12/08 12:47:44;;;;;;;;;;;;;;;14.87;56.35;94893.06;5114849;28;1259;-71
2022/12/08 12:50:12;;;;;;;;;;;;;;;14.85;55.46;94887.06;5115368;28;1012;-70
2022/12/08 12:52:39;;;;;;;;;;;;;;;14.78;55.63;94884.31;5115009;28;1061;-71
2022/12/08 12:55:08;;;;;;;;;;;;;;;14.76;55.40;94889.06;5115163;28;957;-71
2022/12/08 12:57:35;;;;;;;;;;;;;;;14.79;56.19;94887.84;5114594;28;1084;-72
2022/12/08 13:00:01;;;;;;;;;;;;;;;14.83;55.15;94889.09;5114856;28;1893;-71
2022/12/08 13:02:29;;;;;;;;;;;;;;;14.87;55.28;94881.47;5114834;28;1100;-72
2022/12/08 13:04:55;;;;;;;;;;;;;;;14.88;55.62;94885.84;5114508;28;1040;-72
2022/12/08 13:07:27;;;;;;;;;;;;;;;14.89;55.20;94877.59;5114573;28;1205;-70
2022/12/08 13:10:17;;;;;;;;;;;;;;;14.87;55.10;94882.31;5114792;28;993;-70
2022/12/08 13:12:44;;;;;;;;;;;;;;;14.88;54.93;94885.84;5076518;28;1248;-70
2022/12/08 13:15:18;;;;;;;;;;;;;;;14.86;55.43;94880.66;5114850;28;969;-70
2022/12/08 13:17:45;;;;;;;;;;;;;;;14.82;55.35;94887.47;5114276;28;1144;-70